Time;durP1;ratioP1;P1;durP2;ratioP2;P2;SDS_P1;SDS_P2;PMS_P1;PMS_P2;Temp;Humidity;BMP_temperature;BMP_pressure;BME280_temperature;BME280_humidity;BME280_pressure;Samples;Min_cycle;Max_cycle;Signal;HPM_P1;HPM_P2
2023/03/29 00:00:21;;;;;;;0.00;0.00;;;;;;;9.16;100.00;100105.34;6185545;23;20039;-75
2023/03/29 00:02:47;;;;;;;0.00;0.00;;;;;;;9.20;100.00;100113.81;6212740;23;20042;-75
2023/03/29 00:05:18;;;;;;;0.00;0.00;;;;;;;9.26;100.00;100120.97;6186107;23;20007;-74
2023/03/29 00:07:43;;;;;;;0.00;0.00;;;;;;;9.23;100.00;100108.66;6210657;23;20003;-74
2023/03/29 00:10:10;;;;;;;0.00;0.00;;;;;;;9.28;100.00;100112.50;6189300;23;20035;-74
2023/03/29 00:12:38;;;;;;;0.00;0.00;;;;;;;9.29;100.00;100111.41;6184351;23;20011;-75
2023/03/29 00:15:05;;;;;;;0.00;0.00;;;;;;;9.23;100.00;100086.84;6213006;23;20011;-76
2023/03/29 00:17:33;;;;;;;0.00;0.00;;;;;;;9.34;100.00;100106.00;6208232;23;20005;-75
2023/03/29 00:19:58;;;;;;;0.00;0.00;;;;;;;9.30;100.00;100072.13;6212634;23;20036;-74
2023/03/29 00:22:24;;;;;;;0.00;0.00;;;;;;;9.15;100.00;100062.78;6209084;23;20007;-74
2023/03/29 00:24:55;;;;;;;0.00;0.00;;;;;;;9.15;100.00;100068.25;6213351;23;20000;-75
2023/03/29 00:27:21;;;;;;;0.00;0.00;;;;;;;9.25;100.00;100081.94;6212715;23;20090;-75
2023/03/29 00:29:51;;;;;;;0.00;0.00;;;;;;;9.17;100.00;100071.53;6234854;23;20012;-74
2023/03/29 00:32:16;;;;;;;0.00;0.00;;;;;;;9.22;100.00;100079.72;6191326;23;20054;-75
2023/03/29 00:34:44;;;;;;;0.00;0.00;;;;;;;9.16;100.00;100075.34;6208724;23;20008;-75
2023/03/29 00:37:11;;;;;;;0.00;0.00;;;;;;;9.08;100.00;100063.03;6215317;23;20008;-74
2023/03/29 00:39:39;;;;;;;0.00;0.00;;;;;;;8.98;100.00;100052.06;6210874;23;20012;-75
2023/03/29 00:42:05;;;;;;;0.00;0.00;;;;;;;9.01;100.00;100061.63;6213034;23;20075;-75
2023/03/29 00:45:01;;;;;;;0.00;0.00;;;;;;;9.12;100.00;100076.16;6188561;23;20334;-74
2023/03/29 00:47:47;;;;;;;0.00;0.00;;;;;;;9.03;100.00;100065.72;6213010;23;20000;-75
2023/03/29 00:50:15;;;;;;;0.00;0.00;;;;;;;9.16;100.00;100080.81;6211239;23;20030;-75
2023/03/29 00:52:45;;;;;;;0.00;0.00;;;;;;;9.08;100.00;100079.41;6215439;23;20015;-74
2023/03/29 00:55:16;;;;;;;0.00;0.00;;;;;;;9.14;100.00;100087.59;6213354;23;20603;-74
2023/03/29 00:57:45;;;;;;;0.00;0.00;;;;;;;9.10;100.00;100087.31;6241767;23;20004;-74
2023/03/29 01:00:16;;;;;;;0.00;0.00;;;;;;;9.01;100.00;100058.88;6190587;23;20008;-74
2023/03/29 01:02:44;;;;;;;0.00;0.00;;;;;;;9.14;100.00;100083.00;6189815;23;20020;-74
2023/03/29 01:05:19;;;;;;;0.00;0.00;;;;;;;9.13;100.00;100075.88;6241813;23;20380;-75
2023/03/29 01:08:07;;;;;;;0.00;0.00;;;;;;;9.05;100.00;100065.47;6215748;23;20011;-74
2023/03/29 01:10:40;;;;;;;0.00;0.00;;;;;;;9.23;100.00;100075.94;6237567;23;20042;-74
2023/03/29 01:13:11;;;;;;;0.00;0.00;;;;;;;9.24;100.00;100074.84;6216673;23;20008;-77
2023/03/29 01:15:40;;;;;;;0.00;0.00;;;;;;;9.26;100.00;100059.03;6239783;23;20004;-76
2023/03/29 01:18:07;;;;;;;0.00;0.00;;;;;;;9.28;100.00;100057.94;6215811;23;20004;-75
2023/03/29 01:20:47;;;;;;;0.00;0.00;;;;;;;9.40;100.00;100069.44;6215658;23;20077;-76
2023/03/29 01:23:25;;;;;;;0.00;0.00;;;;;;;9.41;100.00;100054.72;6241958;23;20053;-76
2023/03/29 01:26:09;;;;;;;0.00;0.00;;;;;;;9.40;100.00;100051.19;6210007;23;20000;-75
2023/03/29 01:28:56;;;;;;;0.00;0.00;;;;;;;9.45;100.00;100061.28;6212333;23;19996;-74
2023/03/29 01:31:27;;;;;;;0.00;0.00;;;;;;;9.36;100.00;100046.50;6237605;23;20003;-73
2023/03/29 01:34:01;;;;;;;0.00;0.00;;;;;;;9.31;100.00;100035.59;6211885;23;20004;-74
2023/03/29 01:36:38;;;;;;;0.00;0.00;;;;;;;9.32;100.00;100056.34;6206608;23;20019;-74
2023/03/29 01:39:05;;;;;;;0.00;0.00;;;;;;;9.26;100.00;100053.56;6210288;23;20280;-73
2023/03/29 01:41:45;;;;;;;0.00;0.00;;;;;;;9.30;100.00;100058.50;6240494;23;20008;-74
2023/03/29 01:44:29;;;;;;;0.00;0.00;;;;;;;9.31;100.00;100065.59;6238224;23;20079;-74
2023/03/29 01:47:39;;;;;;;0.10;0.10;;;;;;;9.23;100.00;100048.66;6214736;23;20007;-74
2023/03/29 01:50:44;;;;;;;0.00;0.00;;;;;;;9.32;100.00;100051.69;6094304;23;19998;-74
2023/03/29 01:53:26;;;;;;;0.05;0.05;;;;;;;9.33;100.00;100042.41;6120359;23;20012;-73
2023/03/29 01:55:55;;;;;;;0.00;0.00;;;;;;;9.34;100.00;100043.22;6192330;23;20061;-73
2023/03/29 01:58:32;;;;;;;0.00;0.00;;;;;;;9.37;100.00;100037.22;6213960;23;20004;-73
2023/03/29 02:01:04;;;;;;;0.00;0.00;;;;;;;9.44;100.00;100043.25;6207193;23;20445;-72
2023/03/29 02:03:32;;;;;;;0.00;0.00;;;;;;;9.48;100.00;100038.91;6216280;23;20008;-73
2023/03/29 02:05:59;;;;;;;0.00;0.00;;;;;;;9.55;100.00;100034.03;6209328;23;20004;-73
2023/03/29 02:08:26;;;;;;;0.00;0.00;;;;;;;9.58;100.00;100027.22;6241686;23;20324;-74
2023/03/29 02:10:52;;;;;;;0.00;0.00;;;;;;;9.63;100.00;100018.22;6211769;23;20083;-74
2023/03/29 02:13:18;;;;;;;0.00;0.00;;;;;;;9.67;100.00;100017.41;6190841;23;20083;-75
2023/03/29 02:15:45;;;;;;;0.00;0.00;;;;;;;9.71;100.00;100014.94;6188956;23;20031;-73
2023/03/29 02:18:12;;;;;;;0.00;0.00;;;;;;;9.70;100.00;100013.31;6182156;23;20142;-74
2023/03/29 02:20:42;;;;;;;0.10;0.10;;;;;;;9.72;100.00;100027.50;6213681;23;20129;-74
2023/03/29 02:23:23;;;;;;;0.00;0.00;;;;;;;9.70;100.00;100021.50;6207938;23;20094;-75
2023/03/29 02:25:53;;;;;;;0.00;0.00;;;;;;;9.51;100.00;100007.53;6241618;23;20007;-75
2023/03/29 02:28:22;;;;;;;0.00;0.00;;;;;;;9.51;100.00;100027.47;6185746;23;20482;-72
2023/03/29 02:31:10;;;;;;;0.00;0.00;;;;;;;9.53;100.00;100028.00;6212448;23;20004;-74
2023/03/29 02:34:01;;;;;;;0.00;0.00;;;;;;;9.50;100.00;100025.81;6211127;23;20024;-73
2023/03/29 02:36:37;;;;;;;0.00;0.00;;;;;;;9.48;100.00;100022.53;6239451;22;20379;-75
2023/03/29 02:39:04;;;;;;;0.00;0.00;;;;;;;9.40;100.00;100020.31;6215505;23;20070;-74
2023/03/29 02:41:31;;;;;;;0.00;0.00;;;;;;;9.43;100.00;100022.50;6187863;23;20501;-74
2023/03/29 02:44:00;;;;;;;0.10;0.10;;;;;;;9.37;100.00;100015.41;6215830;23;20094;-74
2023/03/29 02:46:26;;;;;;;0.00;0.00;;;;;;;9.39;100.00;100010.50;6214111;23;20007;-74
2023/03/29 02:48:54;;;;;;;0.00;0.00;;;;;;;9.36;100.00;100013.75;6188834;23;20004;-75
2023/03/29 02:51:25;;;;;;;0.00;0.00;;;;;;;9.35;100.00;100002.03;6190946;23;20015;-74
2023/03/29 02:54:12;;;;;;;0.00;0.00;;;;;;;9.32;100.00;100001.75;6240090;23;20305;-74
2023/03/29 02:56:43;;;;;;;0.00;0.00;;;;;;;9.22;100.00;99981.53;6214664;23;20032;-73
2023/03/29 02:59:10;;;;;;;0.00;0.00;;;;;;;9.18;100.00;99974.94;6188031;23;20004;-73
2023/03/29 03:01:36;;;;;;;0.00;0.00;;;;;;;9.14;100.00;99968.41;6187583;23;20459;-73
2023/03/29 03:04:02;;;;;;;0.10;0.10;;;;;;;9.14;100.00;99983.94;6160014;23;20055;-76
2023/03/29 03:06:28;;;;;;;0.00;0.00;;;;;;;9.04;100.00;99957.47;6239994;23;20008;-76
2023/03/29 03:08:53;;;;;;;0.00;0.00;;;;;;;9.06;100.00;99949.81;6183453;23;20431;-73
2023/03/29 03:11:20;;;;;;;0.00;0.00;;;;;;;9.05;100.00;99950.91;6163008;23;20008;-76
2023/03/29 03:13:45;;;;;;;0.00;0.00;;;;;;;9.09;100.00;99947.38;6238652;23;20004;-76
2023/03/29 03:16:13;;;;;;;0.00;0.00;;;;;;;9.03;100.00;99950.38;6239674;23;20374;-76
2023/03/29 03:18:41;;;;;;;0.00;0.00;;;;;;;9.08;100.00;99953.09;6187803;23;20019;-76
2023/03/29 03:21:08;;;;;;;0.00;0.00;;;;;;;9.05;100.00;99953.63;6209934;23;20369;-76
2023/03/29 03:23:34;;;;;;;0.00;0.00;;;;;;;9.09;100.00;99954.75;6215957;23;20418;-76
2023/03/29 03:25:59;;;;;;;0.00;0.00;;;;;;;9.10;100.00;99950.94;6183102;23;20008;-76
2023/03/29 03:28:26;;;;;;;0.00;0.00;;;;;;;9.06;100.00;99950.63;6165481;23;20091;-76
2023/03/29 03:30:51;;;;;;;0.00;0.00;;;;;;;9.06;100.00;99947.09;6184229;23;20456;-77
2023/03/29 03:33:18;;;;;;;0.00;0.00;;;;;;;9.00;100.00;99935.34;6241751;23;20004;-78
2023/03/29 03:35:45;;;;;;;0.00;0.00;;;;;;;9.14;100.00;99949.31;6184217;23;20028;-78
2023/03/29 03:38:11;;;;;;;0.00;0.00;;;;;;;8.92;100.00;99919.50;6185732;23;20023;-77
2023/03/29 03:40:37;;;;;;;0.00;0.00;;;;;;;9.12;100.00;99951.47;6165216;23;20008;-77
2023/03/29 03:43:03;;;;;;;0.00;0.00;;;;;;;9.03;100.00;99944.91;6180883;23;20036;-78
2023/03/29 03:45:28;;;;;;;0.00;0.00;;;;;;;9.09;100.00;99958.28;6241939;23;20382;-77
2023/03/29 03:47:54;;;;;;;0.00;0.00;;;;;;;9.04;100.00;99944.63;6236780;23;20000;-77
2023/03/29 03:50:20;;;;;;;0.00;0.00;;;;;;;9.01;100.00;99941.59;6208953;23;20008;-77
2023/03/29 03:52:45;;;;;;;0.00;0.00;;;;;;;9.00;100.00;99948.97;6190058;23;20019;-76
2023/03/29 03:55:11;;;;;;;0.00;0.00;;;;;;;9.00;100.00;99956.34;6209367;23;20004;-77
2023/03/29 03:57:36;;;;;;;0.00;0.00;;;;;;;9.03;100.00;99956.63;6212706;23;20015;-77
2023/03/29 04:00:18;;;;;;;0.00;0.00;;;;;;;9.00;100.00;99946.25;6241525;23;20485;-76
2023/03/29 04:02:45;;;;;;;0.00;0.00;;;;;;;8.96;100.00;99938.88;6240718;23;20003;-76
2023/03/29 04:05:11;;;;;;;0.00;0.00;;;;;;;8.94;100.00;99935.63;6240263;23;20082;-77
2023/03/29 04:07:36;;;;;;;0.00;0.00;;;;;;;8.81;100.00;99917.84;6212561;23;20066;-77
2023/03/29 04:10:02;;;;;;;0.00;0.00;;;;;;;8.99;100.00;99927.44;6190148;23;20008;-77
2023/03/29 04:12:28;;;;;;;0.00;0.00;;;;;;;8.89;100.00;99912.69;6183223;23;20442;-76
2023/03/29 04:14:53;;;;;;;0.00;0.00;;;;;;;8.99;100.00;99928.25;6184845;23;20063;-77
2023/03/29 04:17:19;;;;;;;0.00;0.00;;;;;;;8.91;100.00;99907.78;6187307;23;20012;-76
2023/03/29 04:19:45;;;;;;;0.00;0.00;;;;;;;8.88;100.00;99897.41;6160189;23;20090;-76
2023/03/29 04:22:10;;;;;;;0.00;0.00;;;;;;;8.93;100.00;99895.78;6165151;23;20551;-75
2023/03/29 04:24:35;;;;;;;0.00;0.00;;;;;;;9.03;100.00;99923.91;6233175;23;20008;-75
2023/03/29 04:27:01;;;;;;;0.03;0.03;;;;;;;9.02;100.00;99926.91;6166507;23;20063;-75
2023/03/29 04:29:27;;;;;;;0.00;0.00;;;;;;;8.98;100.00;99920.34;6180322;23;20478;-77
2023/03/29 04:31:53;;;;;;;0.00;0.00;;;;;;;8.99;100.00;99921.97;6215723;23;20054;-77
2023/03/29 04:34:19;;;;;;;0.00;0.00;;;;;;;8.93;100.00;99912.16;6211466;23;20064;-77
2023/03/29 04:36:44;;;;;;;0.00;0.00;;;;;;;8.87;100.00;99919.50;6207840;23;20102;-76
2023/03/29 04:39:10;;;;;;;0.00;0.00;;;;;;;8.93;100.00;99942.16;6241499;23;20096;-76
2023/03/29 04:41:35;;;;;;;0.00;0.00;;;;;;;8.94;100.00;99943.78;6182912;23;20000;-76
2023/03/29 04:44:01;;;;;;;0.00;0.00;;;;;;;8.92;100.00;99924.94;6189533;23;20015;-76
2023/03/29 04:46:27;;;;;;;0.00;0.00;;;;;;;8.89;100.00;99918.16;6181032;23;20624;-76
2023/03/29 04:48:53;;;;;;;0.00;0.00;;;;;;;8.84;100.00;99920.84;6214712;23;20326;-77
2023/03/29 04:51:23;;;;;;;0.00;0.00;;;;;;;8.84;100.00;99912.66;6183355;23;20423;-76
2023/03/29 04:53:49;;;;;;;0.00;0.00;;;;;;;8.84;100.00;99922.75;6188192;23;20015;-77
2023/03/29 04:56:15;;;;;;;0.00;0.00;;;;;;;8.78;100.00;99927.38;6189654;23;20028;-76
2023/03/29 04:58:41;;;;;;;0.00;0.00;;;;;;;8.72;100.00;99923.78;6184477;23;20016;-77
2023/03/29 05:01:06;;;;;;;0.00;0.00;;;;;;;8.73;100.00;99916.41;6189777;23;20014;-76
2023/03/29 05:03:31;;;;;;;0.00;0.00;;;;;;;8.70;100.00;99909.63;6234710;23;20416;-77
2023/03/29 05:06:05;;;;;;;0.00;0.00;;;;;;;8.69;100.00;99907.16;6211796;23;20084;-75
2023/03/29 05:08:32;;;;;;;0.00;0.00;;;;;;;8.66;100.00;99908.50;6188135;23;20000;-77
2023/03/29 05:10:57;;;;;;;0.00;0.00;;;;;;;8.70;100.00;99903.31;6183918;23;20377;-75
2023/03/29 05:13:22;;;;;;;0.00;0.00;;;;;;;8.74;100.00;99912.63;6215185;23;20015;-76
2023/03/29 05:15:48;;;;;;;0.00;0.00;;;;;;;8.72;100.00;99901.97;6160171;23;20103;-76
2023/03/29 05:18:13;;;;;;;0.00;0.00;;;;;;;8.71;100.00;99883.16;6186420;23;20012;-76
2023/03/29 05:20:39;;;;;;;0.00;0.00;;;;;;;8.79;100.00;99892.72;6181790;23;20078;-76
2023/03/29 05:23:05;;;;;;;0.00;0.00;;;;;;;8.80;100.00;99897.09;6190269;23;20016;-76
2023/03/29 05:25:30;;;;;;;0.00;0.00;;;;;;;8.74;100.00;99885.34;6186748;23;20008;-75
2023/03/29 05:27:56;;;;;;;0.00;0.00;;;;;;;8.66;100.00;99872.22;6186889;23;20008;-76
2023/03/29 05:30:22;;;;;;;0.00;0.00;;;;;;;8.62;100.00;99868.41;6214729;23;20007;-77
2023/03/29 05:32:50;;;;;;;0.00;0.00;;;;;;;8.68;100.00;99868.16;6209762;23;19997;-76
2023/03/29 05:35:15;;;;;;;0.00;0.00;;;;;;;8.62;100.00;99846.63;6216028;23;20027;-78
2023/03/29 05:37:43;;;;;;;0.10;0.10;;;;;;;8.76;100.00;99855.94;6214053;23;20642;-75
2023/03/29 05:40:08;;;;;;;0.00;0.00;;;;;;;8.81;100.00;99861.38;6162781;22;20004;-75
2023/03/29 05:42:36;;;;;;;0.00;0.00;;;;;;;8.88;100.00;99866.59;6241218;23;20004;-77
2023/03/29 05:45:02;;;;;;;0.00;0.00;;;;;;;8.78;100.00;99861.94;6209685;23;20016;-76
2023/03/29 05:47:28;;;;;;;0.00;0.00;;;;;;;8.74;100.00;99852.63;6162306;23;20011;-77
2023/03/29 05:49:56;;;;;;;0.00;0.00;;;;;;;8.63;100.00;99831.88;6213577;23;20012;-77
2023/03/29 05:52:23;;;;;;;0.10;0.10;;;;;;;8.71;100.00;99842.28;6210725;23;20008;-77
2023/03/29 05:54:48;;;;;;;0.00;0.00;;;;;;;8.78;100.00;99851.03;6213487;23;20308;-77
2023/03/29 05:57:14;;;;;;;0.00;0.00;;;;;;;8.73;100.00;99838.22;6184234;23;20019;-77
2023/03/29 05:59:39;;;;;;;0.00;0.00;;;;;;;8.78;100.00;99850.22;6166560;23;20008;-76
2023/03/29 06:02:05;;;;;;;0.00;0.00;;;;;;;8.77;100.00;99854.03;6183834;23;20316;-76
2023/03/29 06:04:32;;;;;;;0.00;0.00;;;;;;;8.76;100.00;99842.31;6189155;23;20104;-77
2023/03/29 06:06:59;;;;;;;0.00;0.00;;;;;;;8.78;100.00;99834.66;6210561;23;20015;-77
2023/03/29 06:09:24;;;;;;;0.00;0.00;;;;;;;8.81;100.00;99834.13;6162654;23;20481;-77
2023/03/29 06:11:50;;;;;;;0.10;0.10;;;;;;;8.84;100.00;99830.84;6189787;23;20004;-77
2023/03/29 06:14:15;;;;;;;0.00;0.00;;;;;;;8.85;100.00;99840.69;6183915;23;20020;-77
2023/03/29 06:16:42;;;;;;;0.00;0.00;;;;;;;8.80;100.00;99827.03;6190341;23;20419;-77
2023/03/29 06:19:08;;;;;;;0.00;0.00;;;;;;;8.82;100.00;99824.03;6212963;23;20015;-77
2023/03/29 06:21:33;;;;;;;0.00;0.00;;;;;;;8.82;100.00;99818.56;6190836;23;20008;-77
2023/03/29 06:23:59;;;;;;;0.00;0.00;;;;;;;8.87;100.00;99826.78;6211855;23;20008;-78
2023/03/29 06:26:26;;;;;;;0.00;0.00;;;;;;;8.91;100.00;99833.34;6211181;23;20086;-77
2023/03/29 06:28:52;;;;;;;0.00;0.00;;;;;;;8.91;100.00;99834.16;6189799;23;20061;-77
2023/03/29 06:31:18;;;;;;;0.00;0.00;;;;;;;9.05;100.00;99833.63;6208681;23;20012;-77
2023/03/29 06:33:44;;;;;;;0.00;0.00;;;;;;;9.06;100.00;99825.16;6213664;23;20080;-76
2023/03/29 06:36:10;;;;;;;0.00;0.00;;;;;;;9.13;100.00;99822.19;6181677;23;20324;-75
2023/03/29 06:38:36;;;;;;;0.00;0.00;;;;;;;9.13;100.00;99794.91;6212998;23;20056;-77
2023/03/29 06:41:10;;;;;;;0.00;0.00;;;;;;;9.22;100.00;99806.91;6208708;23;20012;-76
2023/03/29 06:43:36;;;;;;;0.00;0.00;;;;;;;9.34;100.00;99800.38;6239534;23;20015;-76
2023/03/29 06:46:02;;;;;;;0.00;0.00;;;;;;;9.44;100.00;99792.19;6237057;23;20405;-77
2023/03/29 06:48:27;;;;;;;0.00;0.00;;;;;;;9.56;100.00;99794.63;6204131;23;20015;-79
2023/03/29 06:50:53;;;;;;;0.00;0.00;;;;;;;9.55;100.00;99793.81;6159207;23;20625;-77
2023/03/29 06:53:19;;;;;;;0.00;0.00;;;;;;;9.55;100.00;99795.72;6212327;23;20004;-76
2023/03/29 06:55:44;;;;;;;0.00;0.00;;;;;;;9.49;100.00;99794.94;6209839;23;20441;-80
2023/03/29 06:58:15;;;;;;;0.00;0.00;;;;;;;9.41;100.00;99781.81;6214663;23;20012;-81
2023/03/29 07:00:41;;;;;;;0.10;0.10;;;;;;;9.49;100.00;99784.00;6187525;23;20015;-78
2023/03/29 07:03:12;;;;;;;0.00;0.00;;;;;;;9.48;100.00;99776.91;6212644;23;20370;-79
2023/03/29 07:05:39;;;;;;;0.00;0.00;;;;;;;9.60;100.00;99795.72;6188091;23;20011;-80
2023/03/29 07:10:53;;;;;;;0.00;0.00;;;;;;;9.60;100.00;99787.53;6210721;23;20458;-81
2023/03/29 07:13:19;;;;;;;0.00;0.00;;;;;;;9.61;100.00;99770.06;6212356;23;20011;-81
2023/03/29 07:15:44;;;;;;;0.00;0.00;;;;;;;9.57;100.00;99758.88;6186070;23;20803;-82
2023/03/29 07:18:11;;;;;;;0.00;0.00;;;;;;;9.66;100.00;99761.03;6187053;23;20019;-82
2023/03/29 07:20:37;;;;;;;0.00;0.00;;;;;;;9.65;100.00;99764.84;6187471;23;20012;-82
2023/03/29 07:23:10;;;;;;;0.00;0.00;;;;;;;9.71;100.00;99753.66;6191133;23;20366;-82
2023/03/29 07:25:37;;;;;;;0.00;0.00;;;;;;;9.85;100.00;99766.72;6187257;23;20094;-83
2023/03/29 07:28:03;;;;;;;0.00;0.00;;;;;;;9.89;100.00;99757.69;6213339;23;19996;-82
2023/03/29 07:30:32;;;;;;;0.00;0.00;;;;;;;9.91;100.00;99750.03;6187200;23;20008;-82
2023/03/29 07:32:57;;;;;;;0.00;0.00;;;;;;;10.02;100.00;99759.03;6209291;23;20323;-81
2023/03/29 07:35:25;;;;;;;0.00;0.00;;;;;;;10.00;100.00;99761.22;6190252;23;20024;-82
2023/03/29 07:37:59;;;;;;;0.00;0.00;;;;;;;9.96;100.00;99760.97;6209197;23;20015;-82
2023/03/29 07:40:26;;;;;;;0.10;0.10;;;;;;;9.98;100.00;99752.47;6215364;23;20000;-81
2023/03/29 07:42:56;;;;;;;0.03;0.03;;;;;;;10.00;100.00;99750.28;6178443;23;20334;-82
2023/03/29 07:45:27;;;;;;;0.00;0.00;;;;;;;10.03;100.00;99754.38;6239589;23;20692;-82
2023/03/29 07:48:19;;;;;;;0.00;0.00;;;;;;;10.03;100.00;99770.78;6209637;23;20030;-81
2023/03/29 07:51:22;;;;;;;0.00;0.00;;;;;;;10.10;100.00;99760.38;6066361;23;21275;-82
2023/03/29 07:56:46;;;;;;;0.00;0.00;;;;;;;10.10;100.00;99757.63;6211156;23;20000;-81
2023/03/29 07:59:12;;;;;;;0.00;0.00;;;;;;;10.09;100.00;99742.31;6165093;23;20396;-80
2023/03/29 08:01:39;;;;;;;0.00;0.00;;;;;;;10.13;100.00;99765.25;6189401;23;20082;-81
2023/03/29 08:04:06;;;;;;;0.00;0.00;;;;;;;10.13;100.00;99754.34;6153069;23;20013;-82
2023/03/29 08:06:42;;;;;;;0.00;0.00;;;;;;;10.13;100.00;99759.81;6188304;23;20062;-81
2023/03/29 08:09:07;;;;;;;0.00;0.00;;;;;;;10.14;100.00;99777.84;6150321;23;20091;-80
2023/03/29 08:11:33;;;;;;;0.00;0.00;;;;;;;10.11;100.00;99762.81;6174790;23;20012;-81
2023/03/29 08:13:59;;;;;;;0.00;0.00;;;;;;;10.08;100.00;99746.97;6210767;23;20042;-80
2023/03/29 08:16:25;;;;;;;0.00;0.00;;;;;;;10.10;100.00;99743.97;6236243;23;20927;-82
2023/03/29 08:18:50;;;;;;;0.00;0.00;;;;;;;10.16;100.00;99750.25;6188444;23;20015;-80
2023/03/29 08:21:16;;;;;;;0.00;0.00;;;;;;;10.13;100.00;99735.22;6211975;23;20027;-83
2023/03/29 08:23:41;;;;;;;0.00;0.00;;;;;;;10.15;100.00;99743.97;6185908;23;20449;-82
2023/03/29 08:26:08;;;;;;;0.00;0.00;;;;;;;10.14;100.00;99734.13;6188319;23;20070;-83
2023/03/29 08:28:33;;;;;;;0.00;0.00;;;;;;;10.18;100.00;99737.94;6188697;23;20004;-83
2023/03/29 08:30:59;;;;;;;0.00;0.00;;;;;;;10.24;100.00;99745.00;6184654;23;20058;-83
2023/03/29 08:33:25;;;;;;;0.00;0.00;;;;;;;10.29;100.00;99734.06;6212380;23;20004;-81
2023/03/29 08:35:53;;;;;;;0.00;0.00;;;;;;;10.36;100.00;99738.44;6184946;23;20020;-82
2023/03/29 08:38:20;;;;;;;0.00;0.00;;;;;;;10.36;100.00;99731.03;6188874;23;20016;-82
2023/03/29 08:40:58;;;;;;;0.00;0.00;;;;;;;10.28;100.00;99724.22;6184866;23;20008;-81
2023/03/29 08:43:30;;;;;;;0.00;0.00;;;;;;;10.36;100.00;99736.50;6188894;23;20004;-80
2023/03/29 08:46:42;;;;;;;0.00;0.00;;;;;;;10.31;100.00;99723.66;6209295;23;20540;-82
2023/03/29 08:49:09;;;;;;;0.00;0.00;;;;;;;10.25;100.00;99713.03;6201104;23;20003;-80
2023/03/29 08:51:48;;;;;;;0.00;0.00;;;;;;;10.29;100.00;99720.41;6184398;23;20012;-81
2023/03/29 08:54:20;;;;;;;0.00;0.00;;;;;;;10.28;100.00;99702.38;6212137;23;20049;-81
2023/03/29 08:56:48;;;;;;;0.00;0.00;;;;;;;10.37;100.00;99699.06;6233843;23;20073;-77
2023/03/29 08:59:27;;;;;;;0.00;0.00;;;;;;;10.35;100.00;99695.78;6189541;23;20013;-80
2023/03/29 09:02:03;;;;;;;0.00;0.00;;;;;;;10.46;100.00;99702.84;6210633;23;20085;-80
2023/03/29 09:04:34;;;;;;;0.00;0.00;;;;;;;10.49;100.00;99705.00;6239931;23;20012;-80
2023/03/29 09:07:01;;;;;;;0.00;0.00;;;;;;;10.44;100.00;99696.81;6209415;23;20011;-80
2023/03/29 09:09:53;;;;;;;0.00;0.00;;;;;;;10.47;100.00;99688.09;6215034;23;20447;-81
2023/03/29 09:12:32;;;;;;;0.00;0.00;;;;;;;10.48;100.00;99695.16;6212085;23;20466;-81
2023/03/29 09:15:09;;;;;;;0.00;0.00;;;;;;;10.53;100.00;99692.41;6215045;23;20012;-79
2023/03/29 09:18:00;;;;;;;0.00;0.00;;;;;;;10.49;100.00;99688.59;6210094;23;20043;-81
2023/03/29 09:20:35;;;;;;;0.00;0.00;;;;;;;10.63;100.00;99703.28;6142034;23;20008;-81
2023/03/29 09:23:03;;;;;;;0.00;0.00;;;;;;;10.70;100.00;99702.94;6214056;23;20000;-81
2023/03/29 09:26:07;;;;;;;0.00;0.00;;;;;;;10.73;100.00;99679.69;6211494;23;20095;-81
2023/03/29 09:28:40;;;;;;;0.00;0.00;;;;;;;10.82;100.00;99678.78;6239413;23;20008;-81
2023/03/29 09:31:26;;;;;;;0.00;0.00;;;;;;;10.86;100.00;99689.97;6216087;23;20036;-81
2023/03/29 09:33:58;;;;;;;0.00;0.00;;;;;;;10.88;100.00;99676.84;6178860;23;20596;-81
2023/03/29 09:36:43;;;;;;;0.00;0.00;;;;;;;10.90;100.00;99671.88;6204706;23;20024;-79
2023/03/29 09:39:13;;;;;;;0.00;0.00;;;;;;;10.91;100.00;99654.38;6207539;23;20095;-79
2023/03/29 09:41:45;;;;;;;0.00;0.00;;;;;;;10.96;100.00;99659.78;6214023;23;20032;-80
2023/03/29 09:44:20;;;;;;;0.00;0.00;;;;;;;10.96;100.00;99656.25;6213014;23;20000;-80
2023/03/29 09:46:55;;;;;;;0.00;0.00;;;;;;;11.00;100.00;99658.13;6212846;23;20011;-81
2023/03/29 09:49:27;;;;;;;0.00;0.00;;;;;;;10.97;100.00;99658.69;6210209;23;20057;-81
2023/03/29 09:51:57;;;;;;;0.00;0.00;;;;;;;10.98;100.00;99643.94;6214844;23;20004;-80
2023/03/29 09:54:22;;;;;;;0.00;0.00;;;;;;;11.07;100.00;99657.78;6209808;23;20170;-80
2023/03/29 09:56:58;;;;;;;;;;;;;;;;;;;;;
2023/03/29 09:59:26;;;;;;;0.00;0.00;;;;;;;10.97;100.00;99636.81;6212092;23;20337;-80
2023/03/29 10:01:52;;;;;;;0.00;0.00;;;;;;;11.05;100.00;99661.91;6215726;23;20804;-80
2023/03/29 10:04:17;;;;;;;0.00;0.00;;;;;;;10.99;100.00;99644.72;6210703;23;20016;-80
2023/03/29 10:06:49;;;;;;;0.00;0.00;;;;;;;11.02;100.00;99654.28;6190097;23;20004;-80
2023/03/29 10:09:19;;;;;;;0.00;0.00;;;;;;;10.91;100.00;99643.44;6216093;23;20011;-79
2023/03/29 10:11:53;;;;;;;0.00;0.00;;;;;;;10.90;100.00;99646.47;6209506;23;20018;-79
2023/03/29 10:14:35;;;;;;;0.00;0.00;;;;;;;10.91;100.00;99642.63;6187480;23;20042;-80
2023/03/29 10:17:05;;;;;;;0.00;0.00;;;;;;;10.91;100.00;99616.09;6237238;23;20012;-79
2023/03/29 10:19:35;;;;;;;0.00;0.00;;;;;;;11.11;100.00;99630.66;6214719;23;20011;-80
2023/03/29 10:22:22;;;;;;;0.00;0.00;;;;;;;11.03;100.00;99617.63;6211242;23;20961;-79
2023/03/29 10:24:53;;;;;;;0.00;0.00;;;;;;;11.06;100.00;99636.19;6212682;23;20095;-80
2023/03/29 10:27:22;;;;;;;0.00;0.00;;;;;;;11.02;100.00;99618.72;6210889;23;20040;-81
2023/03/29 10:29:49;;;;;;;0.00;0.00;;;;;;;11.00;100.00;99603.41;6213476;23;20776;-81
2023/03/29 10:32:33;;;;;;;0.00;0.00;;;;;;;11.04;100.00;99603.66;6210532;23;20007;-80
2023/03/29 10:35:18;;;;;;;0.00;0.00;;;;;;;11.10;100.00;99612.63;6209332;23;20027;-80
2023/03/29 10:38:10;;;;;;;0.00;0.00;;;;;;;11.07;100.00;99608.53;6216208;23;20047;-80
2023/03/29 10:40:43;;;;;;;0.00;0.00;;;;;;;11.05;100.00;99615.41;6210195;23;20081;-81
2023/03/29 10:43:28;;;;;;;0.05;0.05;;;;;;;10.96;100.00;99607.81;6213971;23;20511;-80
2023/03/29 10:45:56;;;;;;;0.00;0.00;;;;;;;11.04;100.00;99600.09;6210881;23;20011;-82
2023/03/29 10:48:29;;;;;;;0.00;0.00;;;;;;;11.00;100.00;99613.53;6211030;23;20085;-81
2023/03/29 10:51:06;;;;;;;0.00;0.00;;;;;;;11.08;100.00;99625.75;6208775;23;20008;-80
2023/03/29 10:53:33;;;;;;;0.00;0.00;;;;;;;11.06;100.00;99622.50;6212016;23;20423;-81
2023/03/29 10:56:22;;;;;;;0.00;0.00;;;;;;;11.13;100.00;99631.19;6237697;23;20004;-82
2023/03/29 10:59:07;;;;;;;0.00;0.00;;;;;;;11.13;100.00;99628.47;6213167;23;20067;-81
2023/03/29 11:02:11;;;;;;;0.00;0.00;;;;;;;11.15;100.00;99626.25;6203304;23;20008;-82
2023/03/29 11:04:56;;;;;;;0.00;0.00;;;;;;;11.05;100.00;99601.72;6208862;23;20004;-80
2023/03/29 11:07:30;;;;;;;0.00;0.00;;;;;;;11.18;100.00;99631.97;6216131;23;20342;-82
2023/03/29 11:10:21;;;;;;;0.00;0.00;;;;;;;11.25;100.00;99628.88;6214330;23;20012;-81
2023/03/29 11:13:07;;;;;;;0.00;0.00;;;;;;;11.30;100.00;99623.34;6211769;23;20071;-81
2023/03/29 11:15:48;;;;;;;0.00;0.00;;;;;;;11.24;100.00;99626.44;6214817;23;20008;-83
2023/03/29 11:18:53;;;;;;;0.00;0.00;;;;;;;11.29;100.00;99635.41;6210143;23;20332;-81
2023/03/29 11:25:20;;;;;;;0.00;0.00;;;;;;;11.18;100.00;99636.59;6150816;23;20005;-85
2023/03/29 11:28:40;;;;;;;;;;;;;;;;;;;;;
2023/03/29 11:46:32;;;;;;;0.00;0.00;;;;;;;11.10;100.00;99596.22;5906582;24;20111;-84
2023/03/29 11:58:01;;;;;;;;;;;;;;;;;;;;;
2023/03/29 12:01:16;;;;;;;;;;;;;;;;;;;;;
2023/03/29 12:15:03;;;;;;;;;;;;;;;;;;;;;
2023/03/29 12:21:31;;;;;;;;;;;;;;;;;;;;;
2023/03/29 12:38:18;;;;;;;0.00;0.00;;;;;;;10.97;100.00;99592.22;5959470;23;20023;-82
2023/03/29 12:45:13;;;;;;;;;;;;;;;;;;;;;
2023/03/29 12:48:16;;;;;;;;;;;;;;;;;;;;;
2023/03/29 12:51:32;;;;;;;;;;;;;;;;;;;;;
2023/03/29 12:58:07;;;;;;;;;;;;;;;;;;;;;
2023/03/29 13:01:38;;;;;;;;;;;;;;;;;;;;;
2023/03/29 13:04:50;;;;;;;;;;;;;;;;;;;;;
2023/03/29 13:07:21;;;;;;;0.00;0.00;;;;;;;10.86;100.00;99558.69;6195401;23;20092;-80
2023/03/29 13:09:52;;;;;;;0.00;0.00;;;;;;;10.88;100.00;99561.97;6210820;23;20008;-81
2023/03/29 13:12:27;;;;;;;0.00;0.00;;;;;;;10.83;100.00;99559.25;6207435;23;20086;-81
2023/03/29 13:14:59;;;;;;;0.00;0.00;;;;;;;10.83;100.00;99548.31;6210846;23;20016;-80
2023/03/29 13:17:35;;;;;;;0.00;0.00;;;;;;;11.01;100.00;99560.47;6206347;23;20331;-80